Time;durP1;ratioP1;P1;durP2;ratioP2;P2;SDS_P1;SDS_P2;PMS_P1;PMS_P2;Temp;Humidity;BMP_temperature;BMP_pressure;BME280_temperature;BME280_humidity;BME280_pressure;Samples;Min_cycle;Max_cycle;Signal;HPM_P1;HPM_P2
2023/08/08 00:00:10;;;;;;;2.00;1.70;;;15.70;99.90;;;;;;5034661;28;20220;-72
2023/08/08 00:02:36;;;;;;;1.47;1.37;;;15.70;99.90;;;;;;5016740;28;20225;-71
2023/08/08 00:05:02;;;;;;;1.63;1.53;;;15.70;99.90;;;;;;5001186;28;20553;-72
2023/08/08 00:07:30;;;;;;;1.67;1.57;;;15.70;99.90;;;;;;5016417;28;20224;-72
2023/08/08 00:09:56;;;;;;;2.20;1.83;;;15.70;99.90;;;;;;4998659;28;20228;-72
2023/08/08 00:12:22;;;;;;;1.97;1.87;;;15.70;99.90;;;;;;5018155;28;20924;-72
2023/08/08 00:14:48;;;;;;;1.90;1.80;;;15.70;99.90;;;;;;5033797;28;20463;-72
2023/08/08 00:17:14;;;;;;;2.07;1.60;;;15.70;99.90;;;;;;4997712;28;20528;-72
2023/08/08 00:19:40;;;;;;;2.03;1.83;;;15.70;99.90;;;;;;4999561;28;20216;-72
2023/08/08 00:22:06;;;;;;;1.90;1.50;;;15.70;99.90;;;;;;5017088;28;20263;-71
2023/08/08 00:24:32;;;;;;;1.87;1.77;;;15.70;99.90;;;;;;5033116;28;21056;-71
2023/08/08 00:26:57;;;;;;;2.97;1.50;;;15.70;99.90;;;;;;4999018;28;20329;-72
2023/08/08 00:29:23;;;;;;;1.87;1.70;;;15.70;99.90;;;;;;5000217;28;20313;-72
2023/08/08 00:31:48;;;;;;;1.80;1.70;;;15.70;99.90;;;;;;5001977;28;20254;-72
2023/08/08 00:34:14;;;;;;;2.50;2.03;;;15.70;99.90;;;;;;5003259;28;20224;-71
2023/08/08 00:36:40;;;;;;;1.83;1.70;;;15.80;99.90;;;;;;5037077;28;20232;-71
2023/08/08 00:39:05;;;;;;;1.40;1.30;;;15.70;99.90;;;;;;5036725;28;20255;-72
2023/08/08 00:41:31;;;;;;;1.73;1.60;;;15.70;99.90;;;;;;5002503;28;20735;-72
2023/08/08 00:43:57;;;;;;;1.97;1.57;;;15.70;99.90;;;;;;5004355;28;20788;-73
2023/08/08 00:46:24;;;;;;;1.60;1.50;;;15.70;99.90;;;;;;5002529;28;20227;-73
2023/08/08 00:48:51;;;;;;;1.70;1.60;;;15.70;99.90;;;;;;5001884;28;20240;-72
2023/08/08 00:51:18;;;;;;;2.27;1.73;;;15.70;99.90;;;;;;5001662;28;20474;-71
2023/08/08 00:53:44;;;;;;;1.50;1.40;;;15.60;99.90;;;;;;5036053;28;20611;-73
2023/08/08 00:56:13;;;;;;;3.40;1.90;;;15.60;99.90;;;;;;5004373;28;21086;-72
2023/08/08 00:58:40;;;;;;;1.70;1.60;;;15.70;99.90;;;;;;5003738;28;21126;-73
2023/08/08 01:01:06;;;;;;;1.87;1.30;;;15.60;99.90;;;;;;5034287;28;20937;-72
2023/08/08 01:03:31;;;;;;;2.33;1.40;;;15.50;99.90;;;;;;5005147;28;20849;-72
2023/08/08 01:06:28;;;;;;;1.70;1.60;;;15.50;99.90;;;;;;5037003;28;20509;-72
2023/08/08 01:09:08;;;;;;;1.33;1.27;;;15.50;99.90;;;;;;5019132;28;20676;-72
2023/08/08 01:11:36;;;;;;;1.50;1.40;;;15.50;99.90;;;;;;5017635;28;20531;-72
2023/08/08 01:14:05;;;;;;;1.03;1.03;;;15.40;99.90;;;;;;5004113;28;20489;-73
2023/08/08 01:16:31;;;;;;;1.60;1.50;;;15.40;99.90;;;;;;5002496;28;20474;-72
2023/08/08 01:18:57;;;;;;;1.43;1.30;;;15.30;99.90;;;;;;5035485;28;20474;-72
2023/08/08 01:21:26;;;;;;;1.90;1.40;;;15.40;99.90;;;;;;5003401;28;20469;-72
2023/08/08 01:23:53;;;;;;;2.30;1.73;;;15.20;99.90;;;;;;5020002;28;20834;-71
2023/08/08 01:26:21;;;;;;;2.43;2.00;;;15.10;99.90;;;;;;5035526;28;20470;-72
2023/08/08 01:28:47;;;;;;;1.57;1.10;;;15.20;99.90;;;;;;5002272;28;20485;-72
2023/08/08 01:31:12;;;;;;;1.40;1.30;;;15.20;99.90;;;;;;5002297;28;20467;-72
2023/08/08 01:33:40;;;;;;;2.70;1.60;;;15.30;99.90;;;;;;5035745;28;20225;-72
2023/08/08 01:36:13;;;;;;;1.90;1.40;;;15.30;99.90;;;;;;5003593;28;20516;-71
2023/08/08 01:38:46;;;;;;;4.93;1.83;;;15.30;99.90;;;;;;5002791;28;20285;-73
2023/08/08 01:41:12;;;;;;;1.80;1.67;;;15.10;99.90;;;;;;5017653;28;20541;-72
2023/08/08 01:43:39;;;;;;;1.40;1.30;;;15.00;99.90;;;;;;4993941;28;20472;-72
2023/08/08 01:46:07;;;;;;;1.83;1.73;;;14.90;99.90;;;;;;5005149;28;20490;-71
2023/08/08 01:48:33;;;;;;;1.57;1.47;;;14.90;99.90;;;;;;5007302;28;20482;-72
2023/08/08 01:50:58;;;;;;;1.50;1.40;;;14.90;99.90;;;;;;5001632;28;20535;-72
2023/08/08 01:53:24;;;;;;;2.00;1.90;;;14.90;99.90;;;;;;4999712;28;20232;-71
2023/08/08 01:55:52;;;;;;;1.47;1.37;;;14.90;99.90;;;;;;5000526;28;20238;-72
2023/08/08 01:58:18;;;;;;;4.00;2.07;;;15.00;99.90;;;;;;5018083;28;20304;-72
2023/08/08 02:00:45;;;;;;;1.70;1.60;;;14.90;99.90;;;;;;5018077;28;20478;-72
2023/08/08 02:03:11;;;;;;;4.10;1.30;;;14.80;99.90;;;;;;5000515;28;20695;-71
2023/08/08 02:05:36;;;;;;;5.20;1.80;;;14.70;99.90;;;;;;5017957;28;20458;-72
2023/08/08 02:08:03;;;;;;;2.13;2.00;;;14.80;99.90;;;;;;5018523;28;20618;-72
2023/08/08 02:10:29;;;;;;;1.47;1.37;;;14.80;99.90;;;;;;4996221;28;20344;-72
2023/08/08 02:12:55;;;;;;;2.57;1.43;;;14.80;99.90;;;;;;5033859;28;20478;-71
2023/08/08 02:15:21;;;;;;;1.50;1.40;;;14.80;99.90;;;;;;5018242;28;20242;-72
2023/08/08 02:17:47;;;;;;;1.37;1.27;;;14.90;99.90;;;;;;5017172;28;20224;-72
2023/08/08 02:20:13;;;;;;;1.37;1.17;;;14.80;99.90;;;;;;5016534;28;20331;-73
2023/08/08 02:22:39;;;;;;;1.33;1.30;;;14.80;99.90;;;;;;5034943;28;20464;-71
2023/08/08 02:25:04;;;;;;;1.60;1.50;;;14.70;99.90;;;;;;5009275;28;20309;-72
2023/08/08 02:27:30;;;;;;;1.40;1.30;;;14.70;99.90;;;;;;5018441;28;20225;-71
2023/08/08 02:29:57;;;;;;;1.20;1.10;;;14.60;99.90;;;;;;5001774;28;20459;-72
2023/08/08 02:32:23;;;;;;;1.50;1.40;;;14.50;99.90;;;;;;5000829;28;20498;-72
2023/08/08 02:34:49;;;;;;;1.60;1.50;;;14.50;99.90;;;;;;5035418;28;20224;-71
2023/08/08 02:37:15;;;;;;;2.00;1.60;;;14.50;99.90;;;;;;4987630;28;20458;-71
2023/08/08 02:39:43;;;;;;;2.30;1.43;;;14.50;99.90;;;;;;4984433;28;20227;-72
2023/08/08 02:42:09;;;;;;;1.33;1.23;;;14.40;99.90;;;;;;4995021;28;20223;-72
2023/08/08 02:44:35;;;;;;;1.60;1.50;;;14.40;99.90;;;;;;5034247;28;20459;-72
2023/08/08 02:47:00;;;;;;;1.70;1.60;;;14.50;99.90;;;;;;5017610;28;20793;-73
2023/08/08 02:49:26;;;;;;;1.50;1.40;;;14.40;99.90;;;;;;4989880;28;20224;-71
2023/08/08 02:51:52;;;;;;;1.50;1.40;;;14.40;99.90;;;;;;4979707;28;20229;-72
2023/08/08 02:54:18;;;;;;;1.60;1.50;;;14.30;99.90;;;;;;5000946;28;20251;-72
2023/08/08 02:56:43;;;;;;;1.60;1.50;;;14.40;99.90;;;;;;5000477;28;20964;-72
2023/08/08 02:59:10;;;;;;;1.23;1.17;;;14.40;99.90;;;;;;4982918;28;20606;-72
2023/08/08 03:01:39;;;;;;;1.53;1.30;;;14.50;99.90;;;;;;4964790;28;20470;-71
2023/08/08 03:04:07;;;;;;;1.40;1.33;;;14.40;99.90;;;;;;4976543;28;20263;-72
2023/08/08 03:06:32;;;;;;;1.40;1.30;;;14.30;99.90;;;;;;4983525;28;20479;-72
2023/08/08 03:08:58;;;;;;;1.80;1.70;;;14.20;99.90;;;;;;4964941;28;20325;-72
2023/08/08 03:11:24;;;;;;;1.70;1.60;;;14.20;99.90;;;;;;4968755;28;20221;-71
2023/08/08 03:13:50;;;;;;;1.77;1.67;;;14.10;99.90;;;;;;4966269;28;20541;-71
2023/08/08 03:16:17;;;;;;;1.50;1.40;;;14.00;99.90;;;;;;4965696;28;20543;-71
2023/08/08 03:18:43;;;;;;;1.80;1.30;;;13.80;99.90;;;;;;4967371;28;21178;-71
2023/08/08 03:21:09;;;;;;;2.07;1.23;;;13.90;99.90;;;;;;4984119;28;20507;-72
2023/08/08 03:23:35;;;;;;;1.20;1.20;;;14.00;99.90;;;;;;4965311;28;21101;-72
2023/08/08 03:26:01;;;;;;;1.50;1.40;;;14.10;99.90;;;;;;4996255;28;20244;-72
2023/08/08 03:28:26;;;;;;;1.37;1.30;;;14.00;99.90;;;;;;4968161;28;20262;-72
2023/08/08 03:30:54;;;;;;;1.50;1.40;;;14.00;99.90;;;;;;4966478;28;20216;-72
2023/08/08 03:33:21;;;;;;;2.10;1.13;;;14.00;99.90;;;;;;4965124;28;21160;-71
2023/08/08 03:35:47;;;;;;;1.50;1.40;;;14.10;99.90;;;;;;4968475;28;20479;-72
2023/08/08 03:38:14;;;;;;;1.43;1.27;;;14.10;99.90;;;;;;4967511;28;20842;-70
2023/08/08 03:40:40;;;;;;;1.40;1.30;;;14.10;99.90;;;;;;4964383;28;20514;-71
2023/08/08 03:43:06;;;;;;;1.53;1.43;;;14.20;99.90;;;;;;4965347;28;20216;-72
2023/08/08 03:45:32;;;;;;;1.90;1.27;;;14.10;99.90;;;;;;4969542;28;20626;-71
2023/08/08 03:47:58;;;;;;;1.50;1.40;;;14.00;99.90;;;;;;4963739;28;20279;-71
2023/08/08 03:50:23;;;;;;;1.53;1.40;;;13.90;99.90;;;;;;4962782;28;20347;-71
2023/08/08 03:52:49;;;;;;;2.07;1.50;;;13.90;99.90;;;;;;4967137;28;20415;-72
2023/08/08 03:55:15;;;;;;;1.43;1.33;;;13.90;99.90;;;;;;4968348;28;20232;-72
2023/08/08 03:57:42;;;;;;;1.67;1.20;;;14.00;99.90;;;;;;4965146;28;20914;-70
2023/08/08 04:00:08;;;;;;;1.30;1.27;;;13.90;99.90;;;;;;4967244;28;20323;-72
2023/08/08 04:02:38;;;;;;;4.50;1.70;;;13.90;99.90;;;;;;4983288;28;20568;-72
2023/08/08 04:05:04;;;;;;;1.57;1.27;;;13.90;99.90;;;;;;4981994;28;20980;-70
2023/08/08 04:07:30;;;;;;;1.77;1.40;;;13.90;99.90;;;;;;4969790;28;20253;-72
2023/08/08 04:09:56;;;;;;;3.10;1.40;;;13.90;99.90;;;;;;4971628;28;20476;-72
2023/08/08 04:12:21;;;;;;;1.33;1.23;;;13.90;99.90;;;;;;4985351;28;20262;-72
2023/08/08 04:14:47;;;;;;;2.20;1.60;;;13.90;99.90;;;;;;4968298;28;20386;-72
2023/08/08 04:17:13;;;;;;;2.00;1.27;;;13.80;99.90;;;;;;4971922;28;20831;-72
2023/08/08 04:19:38;;;;;;;1.40;1.30;;;13.70;99.90;;;;;;4984486;28;20217;-72
2023/08/08 04:22:04;;;;;;;1.93;1.47;;;13.60;99.90;;;;;;4968412;28;20231;-72
2023/08/08 04:24:30;;;;;;;1.73;1.63;;;13.60;99.90;;;;;;5004685;28;20367;-72
2023/08/08 04:26:55;;;;;;;1.00;1.00;;;13.50;99.90;;;;;;4985486;28;20220;-72
2023/08/08 04:29:21;;;;;;;1.30;1.20;;;13.50;99.90;;;;;;4984005;28;20262;-71
2023/08/08 04:31:46;;;;;;;1.73;1.20;;;13.50;99.90;;;;;;4968678;28;20224;-72
2023/08/08 04:34:12;;;;;;;1.50;1.30;;;13.40;99.90;;;;;;4971850;28;20453;-72
2023/08/08 04:36:38;;;;;;;1.30;1.20;;;13.40;99.90;;;;;;4971121;28;20217;-71
2023/08/08 04:39:03;;;;;;;1.53;1.43;;;13.30;99.90;;;;;;4983362;28;20223;-72
2023/08/08 04:41:29;;;;;;;1.30;1.20;;;13.20;99.90;;;;;;4990008;28;20239;-72
2023/08/08 04:43:55;;;;;;;1.20;1.10;;;13.20;99.90;;;;;;4981008;28;20255;-72
2023/08/08 04:46:20;;;;;;;3.33;1.20;;;13.10;99.90;;;;;;5006124;28;20248;-72
2023/08/08 04:48:46;;;;;;;2.30;1.40;;;13.20;99.90;;;;;;5022465;28;20233;-72
2023/08/08 04:51:12;;;;;;;1.40;1.30;;;13.20;99.90;;;;;;5037595;28;20228;-72
2023/08/08 04:53:37;;;;;;;1.97;1.80;;;13.20;99.90;;;;;;5020915;28;20840;-72
2023/08/08 04:56:03;;;;;;;2.40;1.47;;;13.10;99.90;;;;;;5021718;28;20666;-73
2023/08/08 04:58:29;;;;;;;1.30;1.20;;;13.10;99.90;;;;;;4985979;28;20228;-72
2023/08/08 05:00:55;;;;;;;1.90;1.53;;;13.10;99.90;;;;;;5003948;28;20561;-71
2023/08/08 05:03:21;;;;;;;2.70;1.20;;;13.00;99.90;;;;;;5022810;28;20247;-72
2023/08/08 05:05:47;;;;;;;1.57;1.40;;;13.10;99.90;;;;;;5021272;28;20236;-72
2023/08/08 05:08:16;;;;;;;1.63;1.53;;;13.00;99.90;;;;;;5020240;28;20480;-72
2023/08/08 05:10:42;;;;;;;1.60;1.50;;;13.00;99.90;;;;;;5020061;28;20912;-71
2023/08/08 05:13:09;;;;;;;1.30;1.20;;;13.00;99.90;;;;;;5004929;28;20462;-72
2023/08/08 05:15:35;;;;;;;1.30;1.20;;;13.00;99.90;;;;;;5022208;28;20236;-72
2023/08/08 05:18:01;;;;;;;2.33;1.23;;;13.00;99.90;;;;;;5037104;28;21059;-72
2023/08/08 05:20:26;;;;;;;1.63;1.53;;;13.10;99.90;;;;;;5004815;28;20673;-72
2023/08/08 05:22:52;;;;;;;1.70;1.57;;;13.00;99.90;;;;;;4967492;28;21042;-72
2023/08/08 05:25:18;;;;;;;2.00;1.50;;;13.00;99.90;;;;;;4990304;28;20311;-72
2023/08/08 05:27:43;;;;;;;1.47;1.37;;;13.00;99.90;;;;;;4967326;28;20278;-73
2023/08/08 05:30:10;;;;;;;1.50;1.30;;;13.00;99.90;;;;;;4984603;28;20216;-72
2023/08/08 05:32:35;;;;;;;2.80;1.30;;;13.10;99.90;;;;;;5004963;28;20323;-73
2023/08/08 05:35:03;;;;;;;1.73;1.50;;;13.10;99.90;;;;;;5002990;28;21067;-71
2023/08/08 05:37:29;;;;;;;2.00;1.47;;;13.10;99.90;;;;;;4967772;28;20224;-73
2023/08/08 05:39:55;;;;;;;2.50;1.57;;;13.20;99.90;;;;;;4969023;28;20477;-72
2023/08/08 05:42:20;;;;;;;2.10;1.77;;;13.20;99.90;;;;;;5003944;28;20231;-72
2023/08/08 05:44:46;;;;;;;1.47;1.37;;;13.20;99.90;;;;;;4981856;28;20702;-73
2023/08/08 05:47:12;;;;;;;1.50;1.40;;;13.20;99.90;;;;;;4967156;28;20227;-72
2023/08/08 05:49:41;;;;;;;1.47;1.37;;;13.20;99.90;;;;;;4970207;28;20274;-73
2023/08/08 05:52:07;;;;;;;1.50;1.40;;;13.30;99.90;;;;;;5002097;28;20220;-73
2023/08/08 05:54:32;;;;;;;3.43;1.80;;;13.30;99.90;;;;;;4988348;28;21078;-72
2023/08/08 05:56:58;;;;;;;1.60;1.50;;;13.30;99.90;;;;;;4988800;28;20227;-73
2023/08/08 05:59:23;;;;;;;1.90;1.50;;;13.40;99.90;;;;;;5004154;28;20332;-73
2023/08/08 06:01:49;;;;;;;1.30;1.20;;;13.40;99.90;;;;;;5002791;28;20852;-72
2023/08/08 06:04:15;;;;;;;1.87;1.70;;;13.40;99.90;;;;;;4989686;28;20231;-72
2023/08/08 06:06:41;;;;;;;2.87;1.70;;;13.40;99.90;;;;;;4987214;28;20601;-72
2023/08/08 06:09:08;;;;;;;2.80;1.47;;;13.50;99.90;;;;;;4987392;28;20814;-72
2023/08/08 06:11:34;;;;;;;1.47;1.30;;;13.50;99.90;;;;;;5006594;28;20325;-72
2023/08/08 06:14:00;;;;;;;3.43;1.23;;;13.50;99.90;;;;;;4987632;28;20462;-72
2023/08/08 06:16:25;;;;;;;2.50;1.60;;;13.50;99.90;;;;;;4987837;28;20476;-72
2023/08/08 06:18:52;;;;;;;2.40;1.30;;;13.60;99.90;;;;;;5004839;28;20942;-74
2023/08/08 06:21:18;;;;;;;2.90;1.53;;;13.60;99.90;;;;;;4986526;28;20367;-74
2023/08/08 06:23:43;;;;;;;2.60;1.70;;;13.70;99.90;;;;;;4987250;28;20861;-72
2023/08/08 06:26:09;;;;;;;1.50;1.40;;;13.70;99.90;;;;;;5003908;28;20274;-73
2023/08/08 06:28:35;;;;;;;2.03;1.80;;;13.70;99.90;;;;;;5007141;28;20420;-72
2023/08/08 06:31:01;;;;;;;1.57;1.33;;;13.80;99.90;;;;;;4985471;28;20270;-72
2023/08/08 06:33:27;;;;;;;1.63;1.53;;;13.80;99.90;;;;;;4985980;28;20227;-73
2023/08/08 06:35:52;;;;;;;4.03;2.00;;;13.90;99.90;;;;;;4989852;28;20860;-72
2023/08/08 06:38:18;;;;;;;3.97;1.60;;;13.90;99.90;;;;;;5004591;28;20474;-73
2023/08/08 06:40:43;;;;;;;1.97;1.53;;;14.00;99.90;;;;;;4983879;28;20322;-72
2023/08/08 06:43:09;;;;;;;1.63;1.53;;;14.00;99.90;;;;;;5003434;28;20572;-72
2023/08/08 06:45:36;;;;;;;1.50;1.40;;;14.00;99.90;;;;;;5003212;28;20235;-72
2023/08/08 06:48:01;;;;;;;2.43;1.67;;;14.10;99.90;;;;;;5003343;28;20252;-72
2023/08/08 06:50:28;;;;;;;2.07;1.43;;;14.10;99.90;;;;;;5001385;28;21104;-70
2023/08/08 06:52:53;;;;;;;1.57;1.47;;;14.20;99.90;;;;;;4991036;28;20482;-71
2023/08/08 06:55:19;;;;;;;4.67;1.50;;;14.30;99.90;;;;;;5004065;28;20360;-71
2023/08/08 06:57:45;;;;;;;1.50;1.40;;;14.30;99.90;;;;;;4984982;28;20238;-71
2023/08/08 07:00:12;;;;;;;2.73;1.40;;;14.40;99.90;;;;;;4989640;28;20223;-71
2023/08/08 07:02:38;;;;;;;1.63;1.40;;;14.50;99.90;;;;;;4986638;28;20223;-71
2023/08/08 07:05:04;;;;;;;1.60;1.50;;;14.50;99.90;;;;;;4985645;28;21026;-71
2023/08/08 07:07:32;;;;;;;3.33;1.30;;;14.50;99.90;;;;;;4989699;28;20287;-72
2023/08/08 07:09:58;;;;;;;0.93;0.90;;;14.70;99.90;;;;;;4986004;28;20485;-71
2023/08/08 07:12:24;;;;;;;1.50;1.40;;;14.70;99.90;;;;;;4985644;28;20512;-72
2023/08/08 07:14:49;;;;;;;1.87;1.53;;;14.70;99.90;;;;;;4985101;28;20241;-71
2023/08/08 07:17:15;;;;;;;2.07;1.87;;;14.80;99.90;;;;;;4989426;28;20232;-72
2023/08/08 07:19:41;;;;;;;2.20;1.27;;;14.90;99.90;;;;;;4985630;28;20273;-72
2023/08/08 07:22:08;;;;;;;1.50;1.23;;;15.00;99.90;;;;;;4984563;28;20269;-70
2023/08/08 07:24:34;;;;;;;1.60;1.50;;;15.00;99.90;;;;;;5004766;28;20336;-73
2023/08/08 07:27:00;;;;;;;1.53;1.43;;;15.10;99.90;;;;;;4985916;28;20458;-72
2023/08/08 07:29:26;;;;;;;3.60;1.50;;;15.20;99.90;;;;;;5002042;28;20491;-72
2023/08/08 07:31:52;;;;;;;5.57;1.43;;;15.30;99.90;;;;;;4986625;28;20474;-70
2023/08/08 07:34:18;;;;;;;1.57;1.43;;;15.40;99.90;;;;;;4989068;28;20660;-71
2023/08/08 07:36:44;;;;;;;2.27;1.47;;;15.50;99.90;;;;;;4983872;28;20471;-71
2023/08/08 07:39:10;;;;;;;2.20;1.10;;;15.60;99.90;;;;;;4983497;28;20219;-73
2023/08/08 07:41:36;;;;;;;2.03;1.40;;;15.60;99.90;;;;;;4988352;28;20243;-73
2023/08/08 07:44:02;;;;;;;2.47;1.50;;;15.70;99.90;;;;;;4983689;28;20473;-72
2023/08/08 07:46:28;;;;;;;1.80;1.63;;;15.80;99.90;;;;;;4983542;28;20552;-72
2023/08/08 07:48:53;;;;;;;1.50;1.20;;;15.90;99.90;;;;;;4986099;28;20370;-72
2023/08/08 07:51:19;;;;;;;4.37;1.27;;;16.00;99.90;;;;;;5001516;28;20220;-72
2023/08/08 07:53:45;;;;;;;2.63;1.40;;;16.10;99.90;;;;;;4983198;28;20273;-71
2023/08/08 07:56:10;;;;;;;1.50;1.17;;;16.20;99.90;;;;;;5000319;28;20225;-74
2023/08/08 07:58:36;;;;;;;1.53;1.30;;;16.20;99.90;;;;;;5038864;28;20258;-71
2023/08/08 08:01:02;;;;;;;3.30;1.37;;;16.40;99.90;;;;;;5035333;28;20614;-72
2023/08/08 08:03:27;;;;;;;1.67;1.40;;;16.40;99.90;;;;;;4990158;28;20969;-72
2023/08/08 08:05:53;;;;;;;2.53;1.47;;;16.40;99.90;;;;;;4983827;28;20309;-72
2023/08/08 08:08:21;;;;;;;1.77;1.47;;;16.40;99.90;;;;;;4970837;28;20227;-71
2023/08/08 08:10:48;;;;;;;7.33;1.40;;;16.50;99.90;;;;;;4999302;28;20314;-72
2023/08/08 08:13:14;;;;;;;2.90;1.63;;;16.60;99.90;;;;;;5000634;28;21209;-71
2023/08/08 08:15:39;;;;;;;1.60;1.40;;;16.70;99.90;;;;;;4987090;28;20653;-72
2023/08/08 08:18:05;;;;;;;2.20;1.40;;;16.70;99.90;;;;;;4970654;28;20318;-72
2023/08/08 08:20:31;;;;;;;1.70;1.30;;;17.00;99.90;;;;;;4979500;28;20235;-72
2023/08/08 08:22:56;;;;;;;1.60;1.50;;;16.90;99.90;;;;;;4966217;28;20359;-72
2023/08/08 08:25:22;;;;;;;3.67;1.73;;;17.10;99.90;;;;;;4966615;28;20240;-72
2023/08/08 08:27:47;;;;;;;2.87;1.80;;;17.20;99.90;;;;;;4964404;28;20389;-72
2023/08/08 08:30:13;;;;;;;9.73;1.90;;;17.20;99.90;;;;;;4962143;28;20227;-71
2023/08/08 08:32:43;;;;;;;1.70;1.60;;;17.20;99.90;;;;;;4984264;28;20221;-72
2023/08/08 08:35:09;;;;;;;1.67;1.57;;;17.30;99.90;;;;;;4963276;28;20309;-71
2023/08/08 08:37:35;;;;;;;1.50;1.40;;;17.30;99.90;;;;;;4962915;28;20501;-72
2023/08/08 08:40:01;;;;;;;1.60;1.50;;;17.50;99.90;;;;;;4989938;28;20465;-72
2023/08/08 08:42:28;;;;;;;2.50;1.57;;;17.60;99.90;;;;;;5015552;28;20340;-71
2023/08/08 08:44:57;;;;;;;1.70;1.60;;;17.70;99.90;;;;;;4999198;28;20820;-71
2023/08/08 08:47:24;;;;;;;2.93;1.60;;;17.80;99.90;;;;;;5001543;28;20584;-71
2023/08/08 08:49:54;;;;;;;2.73;1.53;;;17.90;99.90;;;;;;4998925;28;20547;-71
2023/08/08 08:52:20;;;;;;;1.70;1.43;;;18.00;99.90;;;;;;5030886;28;20832;-72
2023/08/08 08:54:46;;;;;;;2.97;1.80;;;18.10;99.90;;;;;;5002192;28;20484;-72
2023/08/08 08:57:12;;;;;;;2.27;1.83;;;18.10;99.90;;;;;;5004951;28;20458;-73
2023/08/08 08:59:38;;;;;;;3.67;1.40;;;18.20;99.90;;;;;;5037322;28;20270;-73
2023/08/08 09:02:04;;;;;;;3.07;2.43;;;18.20;99.90;;;;;;5003032;28;21001;-72
2023/08/08 09:04:30;;;;;;;2.33;2.10;;;18.20;99.90;;;;;;5006591;28;20384;-72
2023/08/08 09:06:56;;;;;;;4.70;1.40;;;18.30;99.90;;;;;;5004324;28;20346;-72
2023/08/08 09:09:22;;;;;;;1.80;1.63;;;18.30;99.90;;;;;;5004103;28;20933;-73
2023/08/08 09:11:54;;;;;;;2.20;1.70;;;18.40;99.90;;;;;;5003193;28;20232;-72
2023/08/08 09:14:26;;;;;;;2.60;1.53;;;18.50;99.90;;;;;;5004910;28;20470;-72
2023/08/08 09:16:54;;;;;;;1.97;1.23;;;18.40;99.90;;;;;;5004682;28;20587;-73
2023/08/08 09:19:20;;;;;;;6.43;1.93;;;18.60;99.90;;;;;;5006732;28;21058;-73
2023/08/08 09:21:47;;;;;;;2.77;1.93;;;18.60;99.90;;;;;;5008588;28;20463;-72
2023/08/08 09:24:13;;;;;;;1.57;1.47;;;18.70;99.90;;;;;;5003555;28;20470;-72
2023/08/08 09:26:40;;;;;;;1.97;1.50;;;18.60;99.90;;;;;;5007453;28;20494;-72
2023/08/08 09:29:06;;;;;;;2.00;1.90;;;18.70;99.90;;;;;;5012056;28;20475;-72
2023/08/08 09:31:34;;;;;;;2.07;1.80;;;18.80;99.90;;;;;;5021629;28;20659;-72
2023/08/08 09:34:02;;;;;;;1.90;1.80;;;18.80;99.90;;;;;;5004059;28;21739;-73
2023/08/08 09:36:28;;;;;;;2.47;1.50;;;18.80;99.90;;;;;;5024085;28;20470;-73
2023/08/08 09:38:54;;;;;;;1.83;1.70;;;18.80;99.90;;;;;;5022869;28;20490;-72
2023/08/08 09:41:21;;;;;;;1.60;1.50;;;18.90;99.90;;;;;;5006860;28;20350;-72
2023/08/08 09:43:52;;;;;;;2.60;1.57;;;19.00;99.90;;;;;;5020384;28;20582;-73
2023/08/08 09:46:22;;;;;;;2.20;1.97;;;19.00;99.90;;;;;;5007060;28;20497;-72
2023/08/08 09:48:48;;;;;;;2.57;1.80;;;19.10;99.90;;;;;;5004499;28;20843;-72
2023/08/08 09:51:14;;;;;;;3.07;1.90;;;19.20;99.90;;;;;;5020153;28;20450;-72
2023/08/08 09:53:41;;;;;;;2.43;1.97;;;19.30;99.90;;;;;;5003006;28;20537;-73
2023/08/08 09:56:08;;;;;;;2.70;1.80;;;19.30;99.90;;;;;;5004336;28;20466;-73
2023/08/08 09:58:34;;;;;;;3.27;1.97;;;19.40;99.90;;;;;;5003455;28;20454;-72
2023/08/08 10:01:00;;;;;;;1.53;1.43;;;19.50;99.90;;;;;;5033687;28;20466;-72
2023/08/08 10:03:26;;;;;;;2.20;1.80;;;19.60;99.90;;;;;;5003464;28;20455;-73
2023/08/08 10:05:52;;;;;;;1.67;1.57;;;19.60;99.90;;;;;;5003986;28;20664;-72
2023/08/08 10:08:19;;;;;;;7.13;1.80;;;19.70;99.90;;;;;;5018291;28;20485;-72
2023/08/08 10:10:47;;;;;;;1.80;1.70;;;19.80;99.90;;;;;;4995632;28;20976;-73
2023/08/08 10:13:24;;;;;;;2.40;1.80;;;20.00;99.90;;;;;;5035092;28;20461;-73
2023/08/08 10:15:51;;;;;;;1.80;1.70;;;20.00;99.90;;;;;;4991379;28;20466;-72
2023/08/08 10:18:17;;;;;;;2.10;1.90;;;20.10;99.90;;;;;;4992214;28;20462;-73
2023/08/08 10:20:47;;;;;;;4.30;1.73;;;20.20;99.90;;;;;;5008327;28;21057;-73
2023/08/08 10:23:15;;;;;;;1.60;1.50;;;20.30;99.90;;;;;;5007721;28;20475;-73
2023/08/08 10:25:49;;;;;;;2.80;1.97;;;20.30;99.90;;;;;;5004455;28;20489;-74
2023/08/08 10:28:18;;;;;;;3.00;1.60;;;20.40;99.90;;;;;;5008170;28;20501;-73
2023/08/08 10:30:58;;;;;;;2.70;2.03;;;20.50;99.90;;;;;;5004990;28;20466;-73
2023/08/08 10:33:38;;;;;;;2.23;2.07;;;20.40;99.90;;;;;;4992536;28;22194;-73
2023/08/08 10:36:06;;;;;;;1.73;1.63;;;20.40;99.90;;;;;;5009107;28;20462;-74
2023/08/08 10:38:46;;;;;;;1.80;1.70;;;20.30;99.90;;;;;;4987593;28;20468;-72
2023/08/08 10:41:15;;;;;;;5.10;1.77;;;20.30;99.90;;;;;;5009399;28;20461;-72
2023/08/08 10:43:56;;;;;;;2.17;1.83;;;20.30;99.90;;;;;;5009308;28;20497;-73
2023/08/08 10:46:35;;;;;;;2.30;1.50;;;20.40;99.90;;;;;;5027047;28;21135;-73
2023/08/08 10:49:05;;;;;;;1.67;1.57;;;20.40;99.90;;;;;;5015024;28;20473;-73
2023/08/08 10:51:42;;;;;;;2.50;1.80;;;20.40;99.90;;;;;;5017245;28;20547;-71
2023/08/08 10:54:13;;;;;;;2.57;1.50;;;20.40;99.90;;;;;;5015414;28;21164;-72
2023/08/08 10:56:39;;;;;;;5.93;2.00;;;20.40;99.90;;;;;;5016560;28;20547;-73
2023/08/08 10:59:18;;;;;;;1.80;1.70;;;20.50;99.90;;;;;;4995898;28;20577;-73
2023/08/08 11:01:48;;;;;;;2.30;1.63;;;20.50;99.90;;;;;;5031436;28;20458;-73
2023/08/08 11:04:17;;;;;;;1.73;1.63;;;20.40;99.90;;;;;;5033382;28;20480;-73
2023/08/08 11:06:43;;;;;;;3.43;1.63;;;20.40;99.90;;;;;;5034841;28;20466;-72
2023/08/08 11:09:09;;;;;;;2.40;1.67;;;20.50;99.90;;;;;;5013611;28;20479;-72
2023/08/08 11:11:44;;;;;;;3.10;1.73;;;20.40;99.90;;;;;;5016674;28;20505;-73
2023/08/08 11:14:18;;;;;;;1.77;1.67;;;20.40;99.90;;;;;;5029351;28;21125;-72
2023/08/08 11:16:46;;;;;;;1.60;1.50;;;20.60;99.90;;;;;;4990144;28;20474;-73
2023/08/08 11:19:12;;;;;;;3.43;1.87;;;20.70;99.90;;;;;;4958815;28;20548;-73
2023/08/08 11:21:41;;;;;;;4.47;1.47;;;20.80;99.90;;;;;;4983418;28;20475;-73
2023/08/08 11:24:08;;;;;;;1.83;1.73;;;20.80;99.90;;;;;;4963262;28;20478;-73
2023/08/08 11:26:35;;;;;;;1.60;1.50;;;20.80;99.90;;;;;;5003448;28;20470;-72
2023/08/08 11:29:02;;;;;;;2.00;1.37;;;20.80;99.90;;;;;;4997639;28;20651;-71
2023/08/08 11:31:29;;;;;;;2.17;1.47;;;20.80;99.90;;;;;;4997694;28;20470;-74
2023/08/08 11:33:56;;;;;;;4.03;1.57;;;20.90;99.90;;;;;;5032420;28;20462;-72
2023/08/08 11:36:23;;;;;;;4.00;1.40;;;20.90;99.90;;;;;;4998687;28;20508;-72
2023/08/08 11:38:50;;;;;;;2.83;1.63;;;21.00;99.90;;;;;;4999709;28;20468;-73
2023/08/08 11:41:19;;;;;;;2.27;1.63;;;20.90;99.90;;;;;;5013935;28;21085;-73
2023/08/08 11:43:46;;;;;;;1.70;1.60;;;20.90;99.90;;;;;;5015744;28;20509;-73
2023/08/08 11:46:15;;;;;;;1.63;1.53;;;20.90;99.90;;;;;;5014248;28;20970;-73
2023/08/08 11:48:41;;;;;;;2.00;1.57;;;20.90;99.90;;;;;;4998206;28;20470;-73
2023/08/08 11:51:08;;;;;;;3.00;1.80;;;20.90;99.90;;;;;;5015011;28;20588;-73
2023/08/08 11:53:35;;;;;;;1.90;1.70;;;21.00;99.90;;;;;;5030431;28;20467;-73
2023/08/08 11:56:03;;;;;;;1.80;1.53;;;20.90;99.90;;;;;;5015713;28;20459;-71
2023/08/08 11:58:30;;;;;;;2.70;1.60;;;21.00;99.90;;;;;;5016737;28;20545;-73
2023/08/08 12:00:56;;;;;;;3.10;1.83;;;20.90;99.90;;;;;;5007886;28;20466;-74
2023/08/08 12:03:25;;;;;;;1.50;1.40;;;20.90;99.90;;;;;;4979093;28;20492;-73
2023/08/08 12:05:51;;;;;;;3.30;2.00;;;21.00;99.90;;;;;;5009955;28;20596;-74
2023/08/08 12:08:21;;;;;;;2.10;1.90;;;21.00;99.90;;;;;;4998313;28;20501;-74
2023/08/08 12:10:56;;;;;;;1.70;1.53;;;21.10;99.90;;;;;;5015688;28;21014;-73
2023/08/08 12:13:25;;;;;;;1.70;1.60;;;21.10;99.90;;;;;;5004809;28;20462;-74
2023/08/08 12:15:52;;;;;;;1.60;1.40;;;21.10;99.90;;;;;;5001866;28;20581;-73
2023/08/08 12:18:19;;;;;;;2.50;1.63;;;21.20;99.90;;;;;;4959416;28;20482;-74
2023/08/08 12:20:45;;;;;;;1.97;1.80;;;21.30;99.90;;;;;;4959266;28;20458;-74
2023/08/08 12:23:12;;;;;;;2.40;1.80;;;21.40;99.90;;;;;;4959857;28;20467;-74
2023/08/08 12:25:38;;;;;;;1.50;1.40;;;21.50;99.90;;;;;;4961245;28;20466;-73
2023/08/08 12:28:04;;;;;;;1.73;1.53;;;21.50;99.90;;;;;;4964208;28;20505;-74
2023/08/08 12:30:31;;;;;;;1.90;1.70;;;21.40;99.90;;;;;;4997171;28;20485;-74
2023/08/08 12:32:57;;;;;;;2.90;1.80;;;21.50;99.90;;;;;;4980142;28;20496;-73
2023/08/08 12:35:22;;;;;;;1.70;1.60;;;21.50;99.90;;;;;;4963767;28;20463;-73
2023/08/08 12:37:48;;;;;;;1.50;1.40;;;21.50;99.90;;;;;;4964907;28;20924;-73
2023/08/08 12:40:14;;;;;;;2.47;1.30;;;21.60;99.90;;;;;;4980887;28;20333;-73
2023/08/08 12:42:40;;;;;;;1.30;1.17;;;21.50;99.70;;;;;;4997568;28;20793;-73
2023/08/08 12:45:09;;;;;;;2.37;1.70;;;21.50;99.90;;;;;;4959372;28;20273;-73